sensor_id;sensor_type;location;lat;lon;timestamp;pressure;altitude;pressure_sealevel;temperature;humidity
77381;BME280;66439;50.106;10.996;2023-07-16T00:00:11;98331.41;;;23.25;66.55
77381;BME280;66439;50.106;10.996;2023-07-16T00:02:34;98311.63;;;23.21;66.76
77381;BME280;66439;50.106;10.996;2023-07-16T00:04:37;98307.67;;;23.18;66.83
77381;BME280;66439;50.106;10.996;2023-07-16T00:06:40;98323.63;;;23.15;67.01
77381;BME280;66439;50.106;10.996;2023-07-16T00:08:52;98336.20;;;23.16;67.01
77381;BME280;66439;50.106;10.996;2023-07-16T00:10:55;98329.60;;;23.15;67.20
77381;BME280;66439;50.106;10.996;2023-07-16T00:12:57;98317.98;;;23.17;67.13
77381;BME280;66439;50.106;10.996;2023-07-16T00:15:00;98313.86;;;23.19;67.30
77381;BME280;66439;50.106;10.996;2023-07-16T00:17:03;98318.14;;;23.19;67.12
77381;BME280;66439;50.106;10.996;2023-07-16T00:19:05;98319.16;;;23.18;67.19
77381;BME280;66439;50.106;10.996;2023-07-16T00:21:08;98325.23;;;23.17;67.14
77381;BME280;66439;50.106;10.996;2023-07-16T00:23:11;98331.52;;;23.19;67.18
77381;BME280;66439;50.106;10.996;2023-07-16T00:25:13;98336.38;;;23.19;66.99
77381;BME280;66439;50.106;10.996;2023-07-16T00:27:17;98343.18;;;23.16;66.84
77381;BME280;66439;50.106;10.996;2023-07-16T00:29:21;98341.05;;;23.10;66.83
77381;BME280;66439;50.106;10.996;2023-07-16T00:31:24;98335.99;;;23.05;67.09
77381;BME280;66439;50.106;10.996;2023-07-16T00:33:27;98343.34;;;23.02;67.31
77381;BME280;66439;50.106;10.996;2023-07-16T00:35:30;98363.71;;;23.04;67.28
77381;BME280;66439;50.106;10.996;2023-07-16T00:37:35;98371.25;;;23.05;67.14
77381;BME280;66439;50.106;10.996;2023-07-16T00:39:38;98376.77;;;23.05;66.99
77381;BME280;66439;50.106;10.996;2023-07-16T00:41:41;98385.23;;;23.03;67.13
77381;BME280;66439;50.106;10.996;2023-07-16T00:43:45;98376.95;;;23.00;67.05
77381;BME280;66439;50.106;10.996;2023-07-16T00:45:49;98376.02;;;23.01;67.04
77381;BME280;66439;50.106;10.996;2023-07-16T00:47:51;98378.14;;;23.02;66.93
77381;BME280;66439;50.106;10.996;2023-07-16T00:49:54;98377.81;;;23.00;67.15
77381;BME280;66439;50.106;10.996;2023-07-16T00:51:58;98391.31;;;23.00;67.13
77381;BME280;66439;50.106;10.996;2023-07-16T00:54:01;98404.97;;;22.98;67.23
77381;BME280;66439;50.106;10.996;2023-07-16T00:56:05;98414.19;;;22.94;67.50
77381;BME280;66439;50.106;10.996;2023-07-16T00:58:07;98429.86;;;22.92;67.59
77381;BME280;66439;50.106;10.996;2023-07-16T01:00:11;98452.23;;;22.90;67.86
77381;BME280;66439;50.106;10.996;2023-07-16T01:02:14;98460.27;;;22.92;67.71
77381;BME280;66439;50.106;10.996;2023-07-16T01:04:17;98464.43;;;22.92;67.87
77381;BME280;66439;50.106;10.996;2023-07-16T01:06:35;98468.58;;;22.91;68.03
77381;BME280;66439;50.106;10.996;2023-07-16T01:11:12;98463.49;;;22.87;68.08
77381;BME280;66439;50.106;10.996;2023-07-16T01:13:16;98470.15;;;22.85;68.07
77381;BME280;66439;50.106;10.996;2023-07-16T01:15:19;98475.95;;;22.85;68.26
77381;BME280;66439;50.106;10.996;2023-07-16T01:17:21;98484.13;;;22.82;68.28
77381;BME280;66439;50.106;10.996;2023-07-16T01:19:25;98483.75;;;22.80;68.15
77381;BME280;66439;50.106;10.996;2023-07-16T01:22:22;98484.61;;;22.79;67.97
77381;BME280;66439;50.106;10.996;2023-07-16T01:26:32;98473.77;;;22.79;67.94
77381;BME280;66439;50.106;10.996;2023-07-16T01:28:53;98465.15;;;22.77;67.99
77381;BME280;66439;50.106;10.996;2023-07-16T01:30:59;98471.33;;;22.77;67.84
77381;BME280;66439;50.106;10.996;2023-07-16T01:33:03;98469.59;;;22.76;67.71
77381;BME280;66439;50.106;10.996;2023-07-16T01:35:08;98457.99;;;22.79;67.40
77381;BME280;66439;50.106;10.996;2023-07-16T01:37:13;98437.52;;;22.81;67.25
77381;BME280;66439;50.106;10.996;2023-07-16T01:39:34;98423.26;;;22.80;67.39
77381;BME280;66439;50.106;10.996;2023-07-16T01:41:37;98430.19;;;22.76;67.67
77381;BME280;66439;50.106;10.996;2023-07-16T01:43:40;98437.67;;;22.77;67.65
77381;BME280;66439;50.106;10.996;2023-07-16T01:45:43;98432.52;;;22.76;67.56
77381;BME280;66439;50.106;10.996;2023-07-16T01:48:13;98422.01;;;22.76;67.30
77381;BME280;66439;50.106;10.996;2023-07-16T01:50:18;98422.23;;;22.77;67.57
77381;BME280;66439;50.106;10.996;2023-07-16T01:52:21;98411.70;;;22.76;67.56
77381;BME280;66439;50.106;10.996;2023-07-16T01:54:24;98397.45;;;22.75;67.44
77381;BME280;66439;50.106;10.996;2023-07-16T01:56:27;98383.47;;;22.72;67.35
77381;BME280;66439;50.106;10.996;2023-07-16T01:58:29;98387.70;;;22.71;67.59
77381;BME280;66439;50.106;10.996;2023-07-16T02:00:33;98383.86;;;22.69;67.56
77381;BME280;66439;50.106;10.996;2023-07-16T02:02:36;98369.76;;;22.68;67.55
77381;BME280;66439;50.106;10.996;2023-07-16T02:04:38;98366.18;;;22.67;67.62
77381;BME280;66439;50.106;10.996;2023-07-16T02:06:45;98375.17;;;22.68;67.74
77381;BME280;66439;50.106;10.996;2023-07-16T02:08:57;98377.56;;;22.69;67.46
77381;BME280;66439;50.106;10.996;2023-07-16T02:11:00;98364.17;;;22.68;67.62
77381;BME280;66439;50.106;10.996;2023-07-16T02:13:05;98370.14;;;22.67;67.40
77381;BME280;66439;50.106;10.996;2023-07-16T02:15:08;98369.05;;;22.67;67.35
77381;BME280;66439;50.106;10.996;2023-07-16T02:17:11;98362.77;;;22.68;67.01
77381;BME280;66439;50.106;10.996;2023-07-16T02:19:13;98343.41;;;22.68;66.88
77381;BME280;66439;50.106;10.996;2023-07-16T02:21:16;98338.16;;;22.67;67.29
77381;BME280;66439;50.106;10.996;2023-07-16T02:23:19;98332.30;;;22.65;67.27
77381;BME280;66439;50.106;10.996;2023-07-16T02:25:22;98334.86;;;22.65;67.36
77381;BME280;66439;50.106;10.996;2023-07-16T02:27:24;98331.06;;;22.64;67.48
77381;BME280;66439;50.106;10.996;2023-07-16T02:29:27;98332.42;;;22.63;67.49
77381;BME280;66439;50.106;10.996;2023-07-16T02:31:29;98337.04;;;22.62;67.25
77381;BME280;66439;50.106;10.996;2023-07-16T02:33:32;98328.73;;;22.61;67.23
77381;BME280;66439;50.106;10.996;2023-07-16T02:35:34;98324.61;;;22.60;67.17
77381;BME280;66439;50.106;10.996;2023-07-16T02:37:47;98318.44;;;22.58;67.39
77381;BME280;66439;50.106;10.996;2023-07-16T02:40:24;98322.77;;;22.56;67.24
77381;BME280;66439;50.106;10.996;2023-07-16T02:42:28;98344.66;;;22.53;67.35
77381;BME280;66439;50.106;10.996;2023-07-16T02:44:31;98353.48;;;22.52;67.29
77381;BME280;66439;50.106;10.996;2023-07-16T02:46:34;98369.96;;;22.49;67.26
77381;BME280;66439;50.106;10.996;2023-07-16T02:48:36;98395.56;;;22.45;67.33
77381;BME280;66439;50.106;10.996;2023-07-16T02:50:39;98395.50;;;22.41;67.54
77381;BME280;66439;50.106;10.996;2023-07-16T02:52:41;98420.84;;;22.36;67.68
77381;BME280;66439;50.106;10.996;2023-07-16T02:54:44;98428.04;;;22.31;67.97
77381;BME280;66439;50.106;10.996;2023-07-16T02:56:48;98430.45;;;22.25;68.05
77381;BME280;66439;50.106;10.996;2023-07-16T02:58:50;98426.11;;;22.20;68.31
77381;BME280;66439;50.106;10.996;2023-07-16T03:00:54;98431.58;;;22.22;68.28
77381;BME280;66439;50.106;10.996;2023-07-16T03:02:58;98444.30;;;22.22;68.40
77381;BME280;66439;50.106;10.996;2023-07-16T03:05:02;98439.38;;;22.22;68.21
77381;BME280;66439;50.106;10.996;2023-07-16T03:07:06;98440.70;;;22.25;68.26
77381;BME280;66439;50.106;10.996;2023-07-16T03:09:28;98443.00;;;22.27;68.13
77381;BME280;66439;50.106;10.996;2023-07-16T03:11:31;98447.34;;;22.23;68.32
77381;BME280;66439;50.106;10.996;2023-07-16T03:13:34;98457.19;;;22.19;68.44
77381;BME280;66439;50.106;10.996;2023-07-16T03:15:37;98461.35;;;22.16;68.57
77381;BME280;66439;50.106;10.996;2023-07-16T03:17:42;98471.23;;;22.16;68.77
77381;BME280;66439;50.106;10.996;2023-07-16T03:19:44;98476.65;;;22.12;68.91
77381;BME280;66439;50.106;10.996;2023-07-16T03:21:49;98468.00;;;22.12;68.71
77381;BME280;66439;50.106;10.996;2023-07-16T03:23:52;98452.24;;;22.11;68.65
77381;BME280;66439;50.106;10.996;2023-07-16T03:25:54;98470.36;;;22.13;68.79
77381;BME280;66439;50.106;10.996;2023-07-16T03:27:57;98493.89;;;22.12;68.92
77381;BME280;66439;50.106;10.996;2023-07-16T03:30:01;98497.34;;;22.10;68.67
77381;BME280;66439;50.106;10.996;2023-07-16T03:32:04;98495.44;;;22.09;68.73
77381;BME280;66439;50.106;10.996;2023-07-16T03:34:06;98489.09;;;22.05;68.52
77381;BME280;66439;50.106;10.996;2023-07-16T03:36:09;98499.46;;;22.02;68.46
77381;BME280;66439;50.106;10.996;2023-07-16T03:38:13;98506.27;;;21.98;68.51
77381;BME280;66439;50.106;10.996;2023-07-16T03:40:22;98509.77;;;21.96;68.51
77381;BME280;66439;50.106;10.996;2023-07-16T03:42:26;98515.44;;;21.93;68.63
77381;BME280;66439;50.106;10.996;2023-07-16T03:44:29;98521.81;;;21.91;68.63
77381;BME280;66439;50.106;10.996;2023-07-16T03:46:33;98523.85;;;21.87;68.75
77381;BME280;66439;50.106;10.996;2023-07-16T03:48:36;98518.98;;;21.86;69.01
77381;BME280;66439;50.106;10.996;2023-07-16T03:50:39;98517.45;;;21.85;69.25
77381;BME280;66439;50.106;10.996;2023-07-16T03:52:43;98519.44;;;21.84;69.50
77381;BME280;66439;50.106;10.996;2023-07-16T03:54:46;98521.16;;;21.82;69.42
77381;BME280;66439;50.106;10.996;2023-07-16T03:56:49;98524.23;;;21.79;69.43
77381;BME280;66439;50.106;10.996;2023-07-16T03:58:52;98529.59;;;21.80;69.51
77381;BME280;66439;50.106;10.996;2023-07-16T04:00:55;98527.39;;;21.82;69.46
77381;BME280;66439;50.106;10.996;2023-07-16T04:02:59;98526.43;;;21.84;69.32
77381;BME280;66439;50.106;10.996;2023-07-16T04:05:02;98523.50;;;21.84;69.34
77381;BME280;66439;50.106;10.996;2023-07-16T04:07:06;98518.79;;;21.85;69.35
77381;BME280;66439;50.106;10.996;2023-07-16T04:09:08;98523.07;;;21.84;69.36
77381;BME280;66439;50.106;10.996;2023-07-16T04:11:13;98526.69;;;21.83;69.23
77381;BME280;66439;50.106;10.996;2023-07-16T04:13:16;98526.66;;;21.81;69.21
77381;BME280;66439;50.106;10.996;2023-07-16T04:15:18;98532.94;;;21.79;68.96
77381;BME280;66439;50.106;10.996;2023-07-16T04:17:21;98533.09;;;21.77;68.74
77381;BME280;66439;50.106;10.996;2023-07-16T04:19:29;98532.35;;;21.73;68.83
77381;BME280;66439;50.106;10.996;2023-07-16T04:21:32;98524.13;;;21.74;68.75
77381;BME280;66439;50.106;10.996;2023-07-16T04:23:35;98508.66;;;21.74;68.46
77381;BME280;66439;50.106;10.996;2023-07-16T04:25:37;98507.52;;;21.72;68.25
77381;BME280;66439;50.106;10.996;2023-07-16T04:27:40;98518.42;;;21.70;68.38
77381;BME280;66439;50.106;10.996;2023-07-16T04:29:45;98523.08;;;21.68;68.39
77381;BME280;66439;50.106;10.996;2023-07-16T04:31:47;98522.69;;;21.69;68.25
77381;BME280;66439;50.106;10.996;2023-07-16T04:33:50;98527.98;;;21.67;68.10
77381;BME280;66439;50.106;10.996;2023-07-16T04:35:53;98537.36;;;21.67;67.64
77381;BME280;66439;50.106;10.996;2023-07-16T04:37:57;98547.36;;;21.68;67.46
77381;BME280;66439;50.106;10.996;2023-07-16T04:40:00;98552.80;;;21.66;67.51
77381;BME280;66439;50.106;10.996;2023-07-16T04:42:03;98560.05;;;21.66;67.35
77381;BME280;66439;50.106;10.996;2023-07-16T04:44:06;98556.50;;;21.61;67.38
77381;BME280;66439;50.106;10.996;2023-07-16T04:46:09;98564.48;;;21.63;67.41
77381;BME280;66439;50.106;10.996;2023-07-16T04:48:11;98574.50;;;21.65;67.39
77381;BME280;66439;50.106;10.996;2023-07-16T04:50:14;98578.27;;;21.63;67.33
77381;BME280;66439;50.106;10.996;2023-07-16T04:52:16;98576.98;;;21.65;66.94
77381;BME280;66439;50.106;10.996;2023-07-16T04:54:19;98583.92;;;21.65;66.93
77381;BME280;66439;50.106;10.996;2023-07-16T04:56:22;98591.16;;;21.65;66.56
77381;BME280;66439;50.106;10.996;2023-07-16T04:58:24;98600.84;;;21.66;66.51
77381;BME280;66439;50.106;10.996;2023-07-16T05:00:31;98606.05;;;21.67;66.48
77381;BME280;66439;50.106;10.996;2023-07-16T05:02:34;98616.41;;;21.68;66.41
77381;BME280;66439;50.106;10.996;2023-07-16T05:04:37;98618.79;;;21.69;66.51
77381;BME280;66439;50.106;10.996;2023-07-16T05:06:39;98623.77;;;21.69;66.39
77381;BME280;66439;50.106;10.996;2023-07-16T05:08:42;98622.81;;;21.72;66.14
77381;BME280;66439;50.106;10.996;2023-07-16T05:10:48;98620.83;;;21.74;66.09
77381;BME280;66439;50.106;10.996;2023-07-16T05:12:50;98622.73;;;21.74;66.07
77381;BME280;66439;50.106;10.996;2023-07-16T05:14:53;98623.05;;;21.74;66.06
77381;BME280;66439;50.106;10.996;2023-07-16T05:16:56;98615.58;;;21.73;65.74
77381;BME280;66439;50.106;10.996;2023-07-16T05:18:59;98627.80;;;21.71;65.97
77381;BME280;66439;50.106;10.996;2023-07-16T05:21:02;98631.17;;;21.69;65.88
77381;BME280;66439;50.106;10.996;2023-07-16T05:23:05;98626.36;;;21.68;65.73
77381;BME280;66439;50.106;10.996;2023-07-16T05:25:08;98634.58;;;21.68;65.82
77381;BME280;66439;50.106;10.996;2023-07-16T05:27:12;98644.59;;;21.69;65.71
77381;BME280;66439;50.106;10.996;2023-07-16T05:29:14;98646.48;;;21.67;65.78
77381;BME280;66439;50.106;10.996;2023-07-16T05:31:17;98643.77;;;21.66;65.72
77381;BME280;66439;50.106;10.996;2023-07-16T05:33:20;98648.52;;;21.66;65.66
77381;BME280;66439;50.106;10.996;2023-07-16T05:35:22;98648.58;;;21.72;65.47
77381;BME280;66439;50.106;10.996;2023-07-16T05:37:26;98649.41;;;21.74;65.20
77381;BME280;66439;50.106;10.996;2023-07-16T05:39:29;98656.05;;;21.73;65.16
77381;BME280;66439;50.106;10.996;2023-07-16T05:41:32;98656.20;;;21.71;65.11
77381;BME280;66439;50.106;10.996;2023-07-16T05:43:35;98658.99;;;21.69;65.19
77381;BME280;66439;50.106;10.996;2023-07-16T05:45:38;98662.33;;;21.67;65.41
77381;BME280;66439;50.106;10.996;2023-07-16T05:47:40;98664.59;;;21.67;65.54
77381;BME280;66439;50.106;10.996;2023-07-16T05:49:43;98672.07;;;21.67;65.32
77381;BME280;66439;50.106;10.996;2023-07-16T05:51:46;98676.63;;;21.68;65.25
77381;BME280;66439;50.106;10.996;2023-07-16T05:53:48;98682.25;;;21.68;65.13
77381;BME280;66439;50.106;10.996;2023-07-16T05:55:51;98686.75;;;21.68;65.31
77381;BME280;66439;50.106;10.996;2023-07-16T05:57:54;98684.99;;;21.67;65.18
77381;BME280;66439;50.106;10.996;2023-07-16T05:59:57;98689.09;;;21.70;65.26
77381;BME280;66439;50.106;10.996;2023-07-16T06:02:00;98686.41;;;21.73;65.26
77381;BME280;66439;50.106;10.996;2023-07-16T06:04:02;98685.24;;;21.76;65.29
77381;BME280;66439;50.106;10.996;2023-07-16T06:06:08;98688.72;;;21.77;65.12
77381;BME280;66439;50.106;10.996;2023-07-16T06:08:12;98692.23;;;21.76;65.21
77381;BME280;66439;50.106;10.996;2023-07-16T06:10:15;98695.16;;;21.77;65.23
77381;BME280;66439;50.106;10.996;2023-07-16T06:12:18;98697.59;;;21.76;65.25
77381;BME280;66439;50.106;10.996;2023-07-16T06:14:20;98705.59;;;21.75;65.34
77381;BME280;66439;50.106;10.996;2023-07-16T06:16:23;98708.57;;;21.76;65.11
77381;BME280;66439;50.106;10.996;2023-07-16T06:18:28;98713.10;;;21.80;65.04
77381;BME280;66439;50.106;10.996;2023-07-16T06:20:32;98711.67;;;21.83;64.69
77381;BME280;66439;50.106;10.996;2023-07-16T06:22:45;98711.25;;;21.85;64.44
77381;BME280;66439;50.106;10.996;2023-07-16T06:24:48;98711.80;;;21.85;64.38
77381;BME280;66439;50.106;10.996;2023-07-16T06:26:50;98704.10;;;21.84;64.35
77381;BME280;66439;50.106;10.996;2023-07-16T06:28:53;98704.70;;;21.83;64.43
77381;BME280;66439;50.106;10.996;2023-07-16T06:30:56;98706.27;;;21.84;64.20
77381;BME280;66439;50.106;10.996;2023-07-16T06:32:59;98708.23;;;21.85;64.33
77381;BME280;66439;50.106;10.996;2023-07-16T06:35:02;98705.31;;;21.86;64.34
77381;BME280;66439;50.106;10.996;2023-07-16T06:37:05;98701.54;;;21.86;64.41
77381;BME280;66439;50.106;10.996;2023-07-16T06:39:08;98695.64;;;21.88;64.23
77381;BME280;66439;50.106;10.996;2023-07-16T06:41:11;98689.50;;;21.91;64.09
77381;BME280;66439;50.106;10.996;2023-07-16T06:43:14;98684.20;;;21.93;63.80
77381;BME280;66439;50.106;10.996;2023-07-16T06:45:17;98691.14;;;21.93;63.88
77381;BME280;66439;50.106;10.996;2023-07-16T06:47:20;98695.33;;;21.94;63.84
77381;BME280;66439;50.106;10.996;2023-07-16T06:49:23;98690.83;;;21.94;63.86
77381;BME280;66439;50.106;10.996;2023-07-16T06:51:26;98694.65;;;21.92;63.60
77381;BME280;66439;50.106;10.996;2023-07-16T06:53:28;98701.08;;;21.90;63.40
77381;BME280;66439;50.106;10.996;2023-07-16T06:55:31;98704.16;;;21.90;63.25
77381;BME280;66439;50.106;10.996;2023-07-16T06:57:33;98706.48;;;21.89;63.08
77381;BME280;66439;50.106;10.996;2023-07-16T06:59:36;98706.70;;;21.91;62.98
77381;BME280;66439;50.106;10.996;2023-07-16T07:01:39;98701.77;;;21.95;62.68
77381;BME280;66439;50.106;10.996;2023-07-16T07:03:41;98702.73;;;21.95;62.56
77381;BME280;66439;50.106;10.996;2023-07-16T07:05:44;98702.70;;;22.02;62.36
77381;BME280;66439;50.106;10.996;2023-07-16T07:07:47;98716.38;;;22.07;62.28
77381;BME280;66439;50.106;10.996;2023-07-16T07:09:49;98722.89;;;22.08;61.79
77381;BME280;66439;50.106;10.996;2023-07-16T07:11:52;98721.16;;;22.09;61.83
77381;BME280;66439;50.106;10.996;2023-07-16T07:13:55;98718.20;;;22.11;61.75
77381;BME280;66439;50.106;10.996;2023-07-16T07:15:59;98716.89;;;22.13;61.45
77381;BME280;66439;50.106;10.996;2023-07-16T07:18:02;98724.32;;;22.14;61.47
77381;BME280;66439;50.106;10.996;2023-07-16T07:20:05;98725.80;;;22.16;61.38
77381;BME280;66439;50.106;10.996;2023-07-16T07:22:09;98727.25;;;22.21;60.89
77381;BME280;66439;50.106;10.996;2023-07-16T07:24:12;98722.83;;;22.23;60.65
77381;BME280;66439;50.106;10.996;2023-07-16T07:26:15;98726.23;;;22.23;60.50
77381;BME280;66439;50.106;10.996;2023-07-16T07:28:20;98726.73;;;22.23;60.55
77381;BME280;66439;50.106;10.996;2023-07-16T07:30:23;98738.52;;;22.22;60.51
77381;BME280;66439;50.106;10.996;2023-07-16T07:32:26;98737.17;;;22.16;60.60
77381;BME280;66439;50.106;10.996;2023-07-16T07:34:29;98738.38;;;22.13;60.73
77381;BME280;66439;50.106;10.996;2023-07-16T07:36:32;98739.86;;;22.11;60.77
77381;BME280;66439;50.106;10.996;2023-07-16T07:38:35;98737.06;;;22.16;60.96
77381;BME280;66439;50.106;10.996;2023-07-16T07:40:37;98737.85;;;22.19;60.71
77381;BME280;66439;50.106;10.996;2023-07-16T07:42:40;98742.25;;;22.20;60.82
77381;BME280;66439;50.106;10.996;2023-07-16T07:44:43;98740.30;;;22.17;60.77
77381;BME280;66439;50.106;10.996;2023-07-16T07:46:46;98740.65;;;22.10;60.62
77381;BME280;66439;50.106;10.996;2023-07-16T07:48:49;98744.60;;;22.08;60.73
77381;BME280;66439;50.106;10.996;2023-07-16T07:50:52;98745.86;;;22.04;60.30
77381;BME280;66439;50.106;10.996;2023-07-16T07:52:55;98748.54;;;22.01;60.18
77381;BME280;66439;50.106;10.996;2023-07-16T07:54:57;98745.86;;;21.97;59.98
77381;BME280;66439;50.106;10.996;2023-07-16T07:57:01;98747.11;;;21.93;60.03
77381;BME280;66439;50.106;10.996;2023-07-16T07:59:08;98741.19;;;21.90;60.24
77381;BME280;66439;50.106;10.996;2023-07-16T08:01:11;98738.92;;;21.91;60.32
77381;BME280;66439;50.106;10.996;2023-07-16T08:03:14;98744.05;;;21.90;60.20
77381;BME280;66439;50.106;10.996;2023-07-16T08:05:17;98740.62;;;21.88;59.96
77381;BME280;66439;50.106;10.996;2023-07-16T08:07:22;98738.46;;;21.89;59.69
77381;BME280;66439;50.106;10.996;2023-07-16T08:09:31;98740.54;;;21.90;59.54
77381;BME280;66439;50.106;10.996;2023-07-16T08:11:37;98738.83;;;21.93;59.73
77381;BME280;66439;50.106;10.996;2023-07-16T08:13:44;98739.17;;;21.96;59.82
77381;BME280;66439;50.106;10.996;2023-07-16T08:15:47;98744.79;;;21.97;59.89
77381;BME280;66439;50.106;10.996;2023-07-16T08:17:50;98743.48;;;21.98;59.23
77381;BME280;66439;50.106;10.996;2023-07-16T08:19:53;98745.73;;;21.97;58.50
77381;BME280;66439;50.106;10.996;2023-07-16T08:21:56;98745.35;;;21.96;58.21
77381;BME280;66439;50.106;10.996;2023-07-16T08:23:58;98752.78;;;21.97;58.06
77381;BME280;66439;50.106;10.996;2023-07-16T08:26:01;98751.02;;;21.96;57.85
77381;BME280;66439;50.106;10.996;2023-07-16T08:28:04;98752.41;;;21.98;57.94
77381;BME280;66439;50.106;10.996;2023-07-16T08:30:07;98755.47;;;22.07;58.46
77381;BME280;66439;50.106;10.996;2023-07-16T08:32:10;98756.70;;;22.16;58.38
77381;BME280;66439;50.106;10.996;2023-07-16T08:34:13;98757.93;;;22.25;58.05
77381;BME280;66439;50.106;10.996;2023-07-16T08:36:15;98759.70;;;22.30;57.90
77381;BME280;66439;50.106;10.996;2023-07-16T08:38:18;98762.02;;;22.31;57.83
77381;BME280;66439;50.106;10.996;2023-07-16T08:40:21;98762.66;;;22.32;57.84
77381;BME280;66439;50.106;10.996;2023-07-16T08:42:24;98764.09;;;22.29;57.71
77381;BME280;66439;50.106;10.996;2023-07-16T08:44:28;98763.04;;;22.26;57.26
77381;BME280;66439;50.106;10.996;2023-07-16T08:46:32;98758.65;;;22.20;56.90
77381;BME280;66439;50.106;10.996;2023-07-16T08:48:34;98759.72;;;22.17;56.79
77381;BME280;66439;50.106;10.996;2023-07-16T08:50:38;98760.66;;;22.15;56.85
77381;BME280;66439;50.106;10.996;2023-07-16T08:52:40;98766.09;;;22.16;57.00
77381;BME280;66439;50.106;10.996;2023-07-16T08:54:43;98764.62;;;22.21;56.97
77381;BME280;66439;50.106;10.996;2023-07-16T08:56:47;98765.54;;;22.22;56.53
77381;BME280;66439;50.106;10.996;2023-07-16T08:58:55;98766.36;;;22.16;56.24
77381;BME280;66439;50.106;10.996;2023-07-16T09:01:01;98769.50;;;22.13;56.18
77381;BME280;66439;50.106;10.996;2023-07-16T09:03:04;98769.16;;;22.12;56.10
77381;BME280;66439;50.106;10.996;2023-07-16T09:05:09;98774.54;;;22.13;56.10
77381;BME280;66439;50.106;10.996;2023-07-16T09:07:22;98773.26;;;22.10;55.74
77381;BME280;66439;50.106;10.996;2023-07-16T09:09:25;98773.15;;;22.10;55.83
77381;BME280;66439;50.106;10.996;2023-07-16T09:11:28;98774.90;;;22.15;56.10
77381;BME280;66439;50.106;10.996;2023-07-16T09:13:32;98780.89;;;22.18;56.01
77381;BME280;66439;50.106;10.996;2023-07-16T09:15:35;98783.81;;;22.18;55.78
77381;BME280;66439;50.106;10.996;2023-07-16T09:17:40;98784.73;;;22.18;55.75
77381;BME280;66439;50.106;10.996;2023-07-16T09:19:45;98795.41;;;22.19;55.78
77381;BME280;66439;50.106;10.996;2023-07-16T09:21:53;98790.70;;;22.24;55.36
77381;BME280;66439;50.106;10.996;2023-07-16T09:23:58;98788.11;;;22.26;54.54
77381;BME280;66439;50.106;10.996;2023-07-16T09:26:00;98784.97;;;22.26;54.17
77381;BME280;66439;50.106;10.996;2023-07-16T09:28:06;98787.19;;;22.25;53.83
77381;BME280;66439;50.106;10.996;2023-07-16T09:30:15;98793.79;;;22.24;54.42
77381;BME280;66439;50.106;10.996;2023-07-16T09:32:18;98796.55;;;22.26;54.24
77381;BME280;66439;50.106;10.996;2023-07-16T09:34:23;98795.88;;;22.18;53.64
77381;BME280;66439;50.106;10.996;2023-07-16T09:36:26;98794.70;;;22.10;54.28
77381;BME280;66439;50.106;10.996;2023-07-16T09:38:29;98796.21;;;22.14;54.62
77381;BME280;66439;50.106;10.996;2023-07-16T09:40:32;98798.40;;;22.19;54.53
77381;BME280;66439;50.106;10.996;2023-07-16T09:42:37;98796.31;;;22.28;54.80
77381;BME280;66439;50.106;10.996;2023-07-16T09:44:40;98794.04;;;22.41;54.78
77381;BME280;66439;50.106;10.996;2023-07-16T09:46:45;98789.20;;;22.53;54.40
77381;BME280;66439;50.106;10.996;2023-07-16T09:48:48;98794.73;;;22.69;53.74
77381;BME280;66439;50.106;10.996;2023-07-16T09:50:52;98788.75;;;22.81;52.75
77381;BME280;66439;50.106;10.996;2023-07-16T09:52:56;98787.10;;;22.91;52.10
77381;BME280;66439;50.106;10.996;2023-07-16T09:55:02;98787.51;;;22.99;51.32
77381;BME280;66439;50.106;10.996;2023-07-16T09:57:06;98787.17;;;23.08;51.37
77381;BME280;66439;50.106;10.996;2023-07-16T09:59:13;98782.13;;;23.18;51.08
77381;BME280;66439;50.106;10.996;2023-07-16T10:01:17;98779.02;;;23.26;50.68
77381;BME280;66439;50.106;10.996;2023-07-16T10:03:19;98781.42;;;23.30;50.70
77381;BME280;66439;50.106;10.996;2023-07-16T10:05:25;98777.43;;;23.34;50.34
77381;BME280;66439;50.106;10.996;2023-07-16T10:07:28;98784.33;;;23.36;50.55
77381;BME280;66439;50.106;10.996;2023-07-16T10:09:52;98789.20;;;23.33;50.23
77381;BME280;66439;50.106;10.996;2023-07-16T10:12:07;98786.89;;;23.26;49.89
77381;BME280;66439;50.106;10.996;2023-07-16T10:14:10;98788.02;;;23.18;49.74
77381;BME280;66439;50.106;10.996;2023-07-16T10:16:20;98787.23;;;23.08;49.87
77381;BME280;66439;50.106;10.996;2023-07-16T10:18:26;98789.70;;;23.03;50.20
77381;BME280;66439;50.106;10.996;2023-07-16T10:20:37;98790.65;;;23.02;49.23
77381;BME280;66439;50.106;10.996;2023-07-16T10:22:48;98785.61;;;23.01;48.96
77381;BME280;66439;50.106;10.996;2023-07-16T10:24:52;98777.38;;;23.02;48.82
77381;BME280;66439;50.106;10.996;2023-07-16T10:26:55;98777.55;;;23.05;48.77
77381;BME280;66439;50.106;10.996;2023-07-16T10:28:58;98774.41;;;23.06;48.16
77381;BME280;66439;50.106;10.996;2023-07-16T10:31:01;98770.69;;;23.07;48.09
77381;BME280;66439;50.106;10.996;2023-07-16T10:33:11;98771.63;;;23.13;48.21
77381;BME280;66439;50.106;10.996;2023-07-16T10:35:15;98774.85;;;23.16;47.39
77381;BME280;66439;50.106;10.996;2023-07-16T10:37:18;98773.67;;;23.19;46.96
77381;BME280;66439;50.106;10.996;2023-07-16T10:39:22;98763.64;;;23.20;46.69
77381;BME280;66439;50.106;10.996;2023-07-16T10:41:24;98762.52;;;23.25;46.83
77381;BME280;66439;50.106;10.996;2023-07-16T10:43:27;98763.10;;;23.34;47.32
77381;BME280;66439;50.106;10.996;2023-07-16T10:45:30;98761.02;;;23.39;47.06
77381;BME280;66439;50.106;10.996;2023-07-16T10:47:35;98770.10;;;23.46;46.65
77381;BME280;66439;50.106;10.996;2023-07-16T10:49:39;98772.56;;;23.51;46.75
77381;BME280;66439;50.106;10.996;2023-07-16T10:51:41;98774.63;;;23.52;45.90
77381;BME280;66439;50.106;10.996;2023-07-16T10:53:44;98769.86;;;23.52;46.02